sensor_id;sensor_type;location;lat;lon;timestamp;P1;durP1;ratioP1;P2;durP2;ratioP2
61015;SDS011;46902;52.920;6.536;2024-03-25T00:01:59;16.08;;;4.20;;
61015;SDS011;46902;52.920;6.536;2024-03-25T00:04:25;17.35;;;3.20;;
61015;SDS011;46902;52.920;6.536;2024-03-25T00:06:51;15.40;;;2.63;;
61015;SDS011;46902;52.920;6.536;2024-03-25T00:09:18;18.92;;;2.85;;
61015;SDS011;46902;52.920;6.536;2024-03-25T00:11:43;17.98;;;3.15;;
61015;SDS011;46902;52.920;6.536;2024-03-25T00:14:09;14.50;;;3.25;;
61015;SDS011;46902;52.920;6.536;2024-03-25T00:16:35;13.77;;;2.80;;
61015;SDS011;46902;52.920;6.536;2024-03-25T00:19:02;14.50;;;3.00;;
61015;SDS011;46902;52.920;6.536;2024-03-25T00:21:27;13.85;;;3.05;;
61015;SDS011;46902;52.920;6.536;2024-03-25T00:23:53;16.63;;;2.67;;
61015;SDS011;46902;52.920;6.536;2024-03-25T00:26:21;17.30;;;2.88;;
61015;SDS011;46902;52.920;6.536;2024-03-25T00:28:48;19.52;;;3.20;;
61015;SDS011;46902;52.920;6.536;2024-03-25T00:31:13;16.00;;;2.92;;
61015;SDS011;46902;52.920;6.536;2024-03-25T00:33:39;14.52;;;2.60;;
61015;SDS011;46902;52.920;6.536;2024-03-25T00:36:05;15.30;;;3.47;;
61015;SDS011;46902;52.920;6.536;2024-03-25T00:38:31;15.52;;;3.42;;
61015;SDS011;46902;52.920;6.536;2024-03-25T00:40:56;15.55;;;3.10;;
61015;SDS011;46902;52.920;6.536;2024-03-25T00:43:23;17.60;;;2.90;;
61015;SDS011;46902;52.920;6.536;2024-03-25T00:45:48;19.45;;;3.33;;
61015;SDS011;46902;52.920;6.536;2024-03-25T00:48:14;19.77;;;3.00;;
61015;SDS011;46902;52.920;6.536;2024-03-25T00:50:40;16.27;;;3.03;;
61015;SDS011;46902;52.920;6.536;2024-03-25T00:53:05;15.73;;;3.03;;
61015;SDS011;46902;52.920;6.536;2024-03-25T00:55:32;16.70;;;3.05;;
61015;SDS011;46902;52.920;6.536;2024-03-25T00:58:00;24.90;;;3.75;;
61015;SDS011;46902;52.920;6.536;2024-03-25T01:00:29;25.25;;;4.70;;
61015;SDS011;46902;52.920;6.536;2024-03-25T01:02:54;20.58;;;3.22;;
61015;SDS011;46902;52.920;6.536;2024-03-25T01:05:20;17.48;;;3.30;;
61015;SDS011;46902;52.920;6.536;2024-03-25T01:07:46;15.75;;;3.17;;
61015;SDS011;46902;52.920;6.536;2024-03-25T01:10:12;16.67;;;3.65;;
61015;SDS011;46902;52.920;6.536;2024-03-25T01:12:37;17.92;;;3.35;;
61015;SDS011;46902;52.920;6.536;2024-03-25T01:15:03;18.20;;;3.40;;
61015;SDS011;46902;52.920;6.536;2024-03-25T01:17:30;21.67;;;3.80;;
61015;SDS011;46902;52.920;6.536;2024-03-25T01:19:56;21.10;;;3.75;;
61015;SDS011;46902;52.920;6.536;2024-03-25T01:22:21;18.90;;;3.47;;
61015;SDS011;46902;52.920;6.536;2024-03-25T01:24:47;21.33;;;3.30;;
61015;SDS011;46902;52.920;6.536;2024-03-25T01:27:13;19.60;;;3.97;;
61015;SDS011;46902;52.920;6.536;2024-03-25T01:29:38;18.02;;;3.25;;
61015;SDS011;46902;52.920;6.536;2024-03-25T01:32:04;19.95;;;3.78;;
61015;SDS011;46902;52.920;6.536;2024-03-25T01:34:30;22.10;;;3.70;;
61015;SDS011;46902;52.920;6.536;2024-03-25T01:36:56;21.08;;;3.20;;
61015;SDS011;46902;52.920;6.536;2024-03-25T01:39:22;15.48;;;3.42;;
61015;SDS011;46902;52.920;6.536;2024-03-25T01:41:49;25.48;;;4.43;;
61015;SDS011;46902;52.920;6.536;2024-03-25T01:44:15;17.85;;;3.40;;
61015;SDS011;46902;52.920;6.536;2024-03-25T01:46:41;23.50;;;3.72;;
61015;SDS011;46902;52.920;6.536;2024-03-25T01:49:08;18.77;;;3.38;;
61015;SDS011;46902;52.920;6.536;2024-03-25T01:51:34;21.58;;;4.13;;
61015;SDS011;46902;52.920;6.536;2024-03-25T01:54:01;20.17;;;3.33;;
61015;SDS011;46902;52.920;6.536;2024-03-25T01:56:27;22.55;;;4.00;;
61015;SDS011;46902;52.920;6.536;2024-03-25T01:58:58;16.08;;;3.10;;
61015;SDS011;46902;52.920;6.536;2024-03-25T02:01:24;27.70;;;3.63;;
61015;SDS011;46902;52.920;6.536;2024-03-25T02:03:51;23.63;;;3.67;;
61015;SDS011;46902;52.920;6.536;2024-03-25T02:06:18;26.38;;;4.18;;
61015;SDS011;46902;52.920;6.536;2024-03-25T02:08:44;20.77;;;3.35;;
61015;SDS011;46902;52.920;6.536;2024-03-25T02:11:11;25.10;;;4.10;;
61015;SDS011;46902;52.920;6.536;2024-03-25T02:13:38;19.98;;;3.78;;
61015;SDS011;46902;52.920;6.536;2024-03-25T02:16:04;23.92;;;3.67;;
61015;SDS011;46902;52.920;6.536;2024-03-25T02:18:30;24.10;;;3.55;;
61015;SDS011;46902;52.920;6.536;2024-03-25T02:20:59;26.67;;;3.95;;
61015;SDS011;46902;52.920;6.536;2024-03-25T02:23:26;19.05;;;3.70;;
61015;SDS011;46902;52.920;6.536;2024-03-25T02:25:52;22.52;;;3.53;;
61015;SDS011;46902;52.920;6.536;2024-03-25T02:28:19;19.55;;;3.30;;
61015;SDS011;46902;52.920;6.536;2024-03-25T02:30:45;22.13;;;3.42;;
61015;SDS011;46902;52.920;6.536;2024-03-25T02:33:10;21.45;;;3.95;;
61015;SDS011;46902;52.920;6.536;2024-03-25T02:35:37;24.08;;;4.00;;
61015;SDS011;46902;52.920;6.536;2024-03-25T02:38:05;22.83;;;3.72;;
61015;SDS011;46902;52.920;6.536;2024-03-25T02:40:32;15.43;;;2.83;;
61015;SDS011;46902;52.920;6.536;2024-03-25T02:42:58;20.38;;;3.80;;
61015;SDS011;46902;52.920;6.536;2024-03-25T02:45:24;16.98;;;3.00;;
61015;SDS011;46902;52.920;6.536;2024-03-25T02:47:50;21.30;;;3.13;;
61015;SDS011;46902;52.920;6.536;2024-03-25T02:50:16;18.40;;;3.38;;
61015;SDS011;46902;52.920;6.536;2024-03-25T02:52:42;21.38;;;3.22;;
61015;SDS011;46902;52.920;6.536;2024-03-25T02:55:08;17.85;;;3.00;;
61015;SDS011;46902;52.920;6.536;2024-03-25T02:57:33;23.98;;;3.80;;
61015;SDS011;46902;52.920;6.536;2024-03-25T02:59:59;19.58;;;3.67;;
61015;SDS011;46902;52.920;6.536;2024-03-25T03:02:25;20.20;;;3.30;;
61015;SDS011;46902;52.920;6.536;2024-03-25T03:04:50;20.92;;;3.53;;
61015;SDS011;46902;52.920;6.536;2024-03-25T03:07:16;18.45;;;3.05;;
61015;SDS011;46902;52.920;6.536;2024-03-25T03:09:42;18.98;;;3.42;;
61015;SDS011;46902;52.920;6.536;2024-03-25T03:12:07;21.88;;;3.00;;
61015;SDS011;46902;52.920;6.536;2024-03-25T03:14:33;23.45;;;3.53;;
61015;SDS011;46902;52.920;6.536;2024-03-25T03:16:59;22.35;;;3.72;;
61015;SDS011;46902;52.920;6.536;2024-03-25T03:19:29;18.35;;;3.35;;
61015;SDS011;46902;52.920;6.536;2024-03-25T03:21:55;17.85;;;3.20;;
61015;SDS011;46902;52.920;6.536;2024-03-25T03:24:21;20.30;;;3.63;;
61015;SDS011;46902;52.920;6.536;2024-03-25T03:26:47;20.70;;;3.80;;
61015;SDS011;46902;52.920;6.536;2024-03-25T03:29:13;22.80;;;3.22;;
61015;SDS011;46902;52.920;6.536;2024-03-25T03:31:39;16.88;;;2.90;;
61015;SDS011;46902;52.920;6.536;2024-03-25T03:34:05;17.15;;;3.05;;
61015;SDS011;46902;52.920;6.536;2024-03-25T03:36:30;20.92;;;3.20;;
61015;SDS011;46902;52.920;6.536;2024-03-25T03:38:56;21.92;;;3.28;;
61015;SDS011;46902;52.920;6.536;2024-03-25T03:41:22;20.77;;;3.00;;
61015;SDS011;46902;52.920;6.536;2024-03-25T03:43:47;24.23;;;3.22;;
61015;SDS011;46902;52.920;6.536;2024-03-25T03:46:13;20.90;;;3.53;;
61015;SDS011;46902;52.920;6.536;2024-03-25T03:48:39;18.02;;;3.38;;
61015;SDS011;46902;52.920;6.536;2024-03-25T03:51:05;16.25;;;3.20;;
61015;SDS011;46902;52.920;6.536;2024-03-25T03:53:33;18.65;;;3.45;;
61015;SDS011;46902;52.920;6.536;2024-03-25T03:56:00;15.45;;;2.75;;
61015;SDS011;46902;52.920;6.536;2024-03-25T03:58:33;16.63;;;2.67;;
61015;SDS011;46902;52.920;6.536;2024-03-25T04:00:59;21.17;;;3.75;;
61015;SDS011;46902;52.920;6.536;2024-03-25T04:03:25;17.95;;;3.00;;
61015;SDS011;46902;52.920;6.536;2024-03-25T04:05:51;17.35;;;2.72;;
61015;SDS011;46902;52.920;6.536;2024-03-25T04:08:17;19.33;;;3.25;;
61015;SDS011;46902;52.920;6.536;2024-03-25T04:10:43;21.73;;;2.90;;
61015;SDS011;46902;52.920;6.536;2024-03-25T04:13:10;18.42;;;3.10;;
61015;SDS011;46902;52.920;6.536;2024-03-25T04:15:39;15.98;;;2.92;;
61015;SDS011;46902;52.920;6.536;2024-03-25T04:18:06;18.35;;;2.88;;
61015;SDS011;46902;52.920;6.536;2024-03-25T04:20:38;19.98;;;3.50;;
61015;SDS011;46902;52.920;6.536;2024-03-25T04:25:32;19.42;;;2.80;;
61015;SDS011;46902;52.920;6.536;2024-03-25T04:27:58;14.65;;;2.90;;
61015;SDS011;46902;52.920;6.536;2024-03-25T04:30:25;19.25;;;3.53;;
61015;SDS011;46902;52.920;6.536;2024-03-25T04:32:50;18.98;;;3.00;;
61015;SDS011;46902;52.920;6.536;2024-03-25T04:35:16;16.17;;;3.00;;
61015;SDS011;46902;52.920;6.536;2024-03-25T04:37:41;17.63;;;2.47;;
61015;SDS011;46902;52.920;6.536;2024-03-25T04:40:07;15.43;;;2.90;;
61015;SDS011;46902;52.920;6.536;2024-03-25T04:42:33;14.57;;;2.38;;
61015;SDS011;46902;52.920;6.536;2024-03-25T04:44:59;22.30;;;4.03;;
61015;SDS011;46902;52.920;6.536;2024-03-25T04:47:24;21.60;;;3.65;;
61015;SDS011;46902;52.920;6.536;2024-03-25T04:49:50;25.83;;;3.45;;
61015;SDS011;46902;52.920;6.536;2024-03-25T04:52:16;15.50;;;3.05;;
61015;SDS011;46902;52.920;6.536;2024-03-25T04:54:43;22.50;;;3.75;;
61015;SDS011;46902;52.920;6.536;2024-03-25T04:57:08;19.08;;;3.03;;
61015;SDS011;46902;52.920;6.536;2024-03-25T04:59:34;16.40;;;2.60;;
61015;SDS011;46902;52.920;6.536;2024-03-25T05:02:00;15.40;;;2.90;;
61015;SDS011;46902;52.920;6.536;2024-03-25T05:04:25;18.90;;;3.22;;
61015;SDS011;46902;52.920;6.536;2024-03-25T05:06:51;21.25;;;3.25;;
61015;SDS011;46902;52.920;6.536;2024-03-25T05:09:17;20.15;;;3.03;;
61015;SDS011;46902;52.920;6.536;2024-03-25T05:11:43;15.43;;;3.00;;
61015;SDS011;46902;52.920;6.536;2024-03-25T05:14:09;18.33;;;2.40;;
61015;SDS011;46902;52.920;6.536;2024-03-25T05:16:35;17.02;;;2.67;;
61015;SDS011;46902;52.920;6.536;2024-03-25T05:19:01;17.70;;;3.08;;
61015;SDS011;46902;52.920;6.536;2024-03-25T05:21:27;17.13;;;2.90;;
61015;SDS011;46902;52.920;6.536;2024-03-25T05:23:53;24.23;;;3.50;;
61015;SDS011;46902;52.920;6.536;2024-03-25T05:26:18;17.35;;;2.95;;
61015;SDS011;46902;52.920;6.536;2024-03-25T05:28:44;20.67;;;4.22;;
61015;SDS011;46902;52.920;6.536;2024-03-25T05:31:09;25.17;;;3.78;;
61015;SDS011;46902;52.920;6.536;2024-03-25T05:33:35;20.70;;;3.28;;
61015;SDS011;46902;52.920;6.536;2024-03-25T05:36:02;19.23;;;3.92;;
61015;SDS011;46902;52.920;6.536;2024-03-25T05:38:28;21.25;;;3.97;;
61015;SDS011;46902;52.920;6.536;2024-03-25T05:40:54;26.08;;;2.97;;
61015;SDS011;46902;52.920;6.536;2024-03-25T05:43:20;16.23;;;3.00;;
61015;SDS011;46902;52.920;6.536;2024-03-25T05:45:50;17.17;;;3.08;;
61015;SDS011;46902;52.920;6.536;2024-03-25T05:48:16;19.90;;;2.70;;
61015;SDS011;46902;52.920;6.536;2024-03-25T05:50:42;16.35;;;2.92;;
61015;SDS011;46902;52.920;6.536;2024-03-25T05:53:07;18.73;;;3.20;;
61015;SDS011;46902;52.920;6.536;2024-03-25T05:55:33;18.60;;;3.78;;
61015;SDS011;46902;52.920;6.536;2024-03-25T05:57:59;17.52;;;3.50;;
61015;SDS011;46902;52.920;6.536;2024-03-25T06:00:25;20.13;;;3.00;;
61015;SDS011;46902;52.920;6.536;2024-03-25T06:02:51;16.98;;;3.10;;
61015;SDS011;46902;52.920;6.536;2024-03-25T06:05:19;16.00;;;3.15;;
61015;SDS011;46902;52.920;6.536;2024-03-25T06:07:45;15.68;;;2.80;;
61015;SDS011;46902;52.920;6.536;2024-03-25T06:10:10;22.95;;;3.05;;
61015;SDS011;46902;52.920;6.536;2024-03-25T06:12:36;18.90;;;3.60;;
61015;SDS011;46902;52.920;6.536;2024-03-25T06:15:02;18.85;;;3.30;;
61015;SDS011;46902;52.920;6.536;2024-03-25T06:17:28;14.38;;;2.67;;
61015;SDS011;46902;52.920;6.536;2024-03-25T06:19:53;18.63;;;2.67;;
61015;SDS011;46902;52.920;6.536;2024-03-25T06:22:19;21.38;;;3.03;;
61015;SDS011;46902;52.920;6.536;2024-03-25T06:24:45;18.40;;;3.13;;
61015;SDS011;46902;52.920;6.536;2024-03-25T06:27:10;17.85;;;3.22;;
61015;SDS011;46902;52.920;6.536;2024-03-25T06:29:36;15.52;;;3.38;;
61015;SDS011;46902;52.920;6.536;2024-03-25T06:32:01;20.92;;;3.63;;
61015;SDS011;46902;52.920;6.536;2024-03-25T06:34:45;16.15;;;2.67;;
61015;SDS011;46902;52.920;6.536;2024-03-25T06:37:11;19.10;;;3.80;;
61015;SDS011;46902;52.920;6.536;2024-03-25T06:39:37;16.98;;;3.30;;
61015;SDS011;46902;52.920;6.536;2024-03-25T06:42:02;17.42;;;3.13;;
61015;SDS011;46902;52.920;6.536;2024-03-25T06:44:28;21.92;;;3.78;;
61015;SDS011;46902;52.920;6.536;2024-03-25T06:46:54;17.48;;;3.38;;
61015;SDS011;46902;52.920;6.536;2024-03-25T06:49:21;21.27;;;3.25;;
61015;SDS011;46902;52.920;6.536;2024-03-25T06:51:46;21.45;;;3.10;;
61015;SDS011;46902;52.920;6.536;2024-03-25T06:54:12;20.27;;;3.03;;
61015;SDS011;46902;52.920;6.536;2024-03-25T06:56:38;17.73;;;3.80;;
61015;SDS011;46902;52.920;6.536;2024-03-25T06:59:03;18.98;;;2.83;;
61015;SDS011;46902;52.920;6.536;2024-03-25T07:01:32;20.10;;;3.17;;
61015;SDS011;46902;52.920;6.536;2024-03-25T07:03:58;16.08;;;2.30;;
61015;SDS011;46902;52.920;6.536;2024-03-25T07:06:24;19.15;;;2.80;;
61015;SDS011;46902;52.920;6.536;2024-03-25T07:08:50;15.73;;;2.47;;
61015;SDS011;46902;52.920;6.536;2024-03-25T07:11:16;19.73;;;2.92;;
61015;SDS011;46902;52.920;6.536;2024-03-25T07:13:42;21.83;;;3.45;;
61015;SDS011;46902;52.920;6.536;2024-03-25T07:16:08;13.82;;;2.67;;
61015;SDS011;46902;52.920;6.536;2024-03-25T07:18:34;20.30;;;2.85;;
61015;SDS011;46902;52.920;6.536;2024-03-25T07:20:59;21.52;;;3.78;;
61015;SDS011;46902;52.920;6.536;2024-03-25T07:23:25;13.23;;;2.75;;
61015;SDS011;46902;52.920;6.536;2024-03-25T07:25:51;12.88;;;2.30;;
61015;SDS011;46902;52.920;6.536;2024-03-25T07:28:16;19.85;;;3.88;;
61015;SDS011;46902;52.920;6.536;2024-03-25T07:30:42;15.00;;;2.78;;
61015;SDS011;46902;52.920;6.536;2024-03-25T07:33:07;13.65;;;2.55;;
61015;SDS011;46902;52.920;6.536;2024-03-25T07:35:33;18.08;;;2.83;;
61015;SDS011;46902;52.920;6.536;2024-03-25T07:38:00;19.30;;;2.75;;
61015;SDS011;46902;52.920;6.536;2024-03-25T07:40:28;13.55;;;2.28;;
61015;SDS011;46902;52.920;6.536;2024-03-25T07:42:54;11.88;;;2.47;;
61015;SDS011;46902;52.920;6.536;2024-03-25T07:45:20;11.80;;;1.90;;
61015;SDS011;46902;52.920;6.536;2024-03-25T07:47:45;10.50;;;1.80;;
61015;SDS011;46902;52.920;6.536;2024-03-25T07:50:11;13.48;;;2.30;;
61015;SDS011;46902;52.920;6.536;2024-03-25T07:52:37;10.88;;;2.17;;
61015;SDS011;46902;52.920;6.536;2024-03-25T07:55:08;10.20;;;2.35;;
61015;SDS011;46902;52.920;6.536;2024-03-25T07:57:34;11.95;;;2.58;;
61015;SDS011;46902;52.920;6.536;2024-03-25T08:00:00;13.65;;;2.55;;
61015;SDS011;46902;52.920;6.536;2024-03-25T08:02:25;10.93;;;2.47;;
61015;SDS011;46902;52.920;6.536;2024-03-25T08:04:51;15.02;;;3.03;;
61015;SDS011;46902;52.920;6.536;2024-03-25T08:07:17;13.45;;;2.08;;
61015;SDS011;46902;52.920;6.536;2024-03-25T08:09:42;11.23;;;2.50;;
61015;SDS011;46902;52.920;6.536;2024-03-25T08:12:08;13.23;;;2.72;;
61015;SDS011;46902;52.920;6.536;2024-03-25T08:14:33;10.10;;;1.98;;
61015;SDS011;46902;52.920;6.536;2024-03-25T08:16:59;12.18;;;2.78;;
61015;SDS011;46902;52.920;6.536;2024-03-25T08:19:25;13.15;;;2.08;;
61015;SDS011;46902;52.920;6.536;2024-03-25T08:21:50;12.65;;;2.30;;
61015;SDS011;46902;52.920;6.536;2024-03-25T08:24:16;12.43;;;2.30;;
61015;SDS011;46902;52.920;6.536;2024-03-25T08:26:41;12.60;;;2.15;;
61015;SDS011;46902;52.920;6.536;2024-03-25T08:29:07;15.25;;;2.70;;
61015;SDS011;46902;52.920;6.536;2024-03-25T08:31:33;11.32;;;2.33;;
61015;SDS011;46902;52.920;6.536;2024-03-25T08:33:58;9.43;;;2.15;;
61015;SDS011;46902;52.920;6.536;2024-03-25T08:36:24;13.40;;;2.80;;
61015;SDS011;46902;52.920;6.536;2024-03-25T08:38:50;9.63;;;1.95;;
61015;SDS011;46902;52.920;6.536;2024-03-25T08:41:16;13.43;;;2.42;;
61015;SDS011;46902;52.920;6.536;2024-03-25T08:43:41;12.45;;;2.72;;
61015;SDS011;46902;52.920;6.536;2024-03-25T08:46:07;10.82;;;2.13;;
61015;SDS011;46902;52.920;6.536;2024-03-25T08:48:32;19.08;;;2.72;;
61015;SDS011;46902;52.920;6.536;2024-03-25T08:50:58;13.18;;;2.50;;
61015;SDS011;46902;52.920;6.536;2024-03-25T08:53:24;14.13;;;2.85;;
61015;SDS011;46902;52.920;6.536;2024-03-25T08:55:49;9.48;;;1.77;;
61015;SDS011;46902;52.920;6.536;2024-03-25T08:58:15;10.90;;;2.05;;
61015;SDS011;46902;52.920;6.536;2024-03-25T09:00:41;10.50;;;2.45;;
61015;SDS011;46902;52.920;6.536;2024-03-25T09:03:08;12.68;;;2.85;;
61015;SDS011;46902;52.920;6.536;2024-03-25T09:05:33;13.55;;;2.17;;
61015;SDS011;46902;52.920;6.536;2024-03-25T09:08:00;12.15;;;1.92;;
61015;SDS011;46902;52.920;6.536;2024-03-25T09:10:25;11.88;;;2.22;;
61015;SDS011;46902;52.920;6.536;2024-03-25T09:13:10;11.80;;;1.92;;
61015;SDS011;46902;52.920;6.536;2024-03-25T09:15:35;13.90;;;2.40;;
61015;SDS011;46902;52.920;6.536;2024-03-25T09:18:01;11.30;;;2.50;;
61015;SDS011;46902;52.920;6.536;2024-03-25T09:20:27;13.68;;;2.20;;
61015;SDS011;46902;52.920;6.536;2024-03-25T09:22:53;13.63;;;1.92;;
61015;SDS011;46902;52.920;6.536;2024-03-25T09:25:19;8.23;;;2.17;;
61015;SDS011;46902;52.920;6.536;2024-03-25T09:27:48;12.52;;;2.33;;
61015;SDS011;46902;52.920;6.536;2024-03-25T09:30:14;13.00;;;1.90;;
61015;SDS011;46902;52.920;6.536;2024-03-25T09:32:41;14.50;;;2.20;;
61015;SDS011;46902;52.920;6.536;2024-03-25T09:35:10;9.10;;;2.53;;
61015;SDS011;46902;52.920;6.536;2024-03-25T09:37:36;11.95;;;2.05;;
61015;SDS011;46902;52.920;6.536;2024-03-25T09:40:02;9.77;;;2.08;;
61015;SDS011;46902;52.920;6.536;2024-03-25T09:42:40;14.45;;;2.42;;
61015;SDS011;46902;52.920;6.536;2024-03-25T09:45:17;12.13;;;2.42;;
61015;SDS011;46902;52.920;6.536;2024-03-25T09:47:46;9.45;;;1.85;;
61015;SDS011;46902;52.920;6.536;2024-03-25T09:50:13;13.68;;;2.25;;
61015;SDS011;46902;52.920;6.536;2024-03-25T09:52:44;15.25;;;2.80;;
61015;SDS011;46902;52.920;6.536;2024-03-25T09:55:10;9.30;;;1.92;;
61015;SDS011;46902;52.920;6.536;2024-03-25T09:57:36;9.60;;;1.88;;
61015;SDS011;46902;52.920;6.536;2024-03-25T10:00:04;12.18;;;2.00;;
61015;SDS011;46902;52.920;6.536;2024-03-25T10:02:32;9.60;;;2.15;;
61015;SDS011;46902;52.920;6.536;2024-03-25T10:04:59;15.75;;;2.50;;
61015;SDS011;46902;52.920;6.536;2024-03-25T10:07:26;14.95;;;2.20;;
61015;SDS011;46902;52.920;6.536;2024-03-25T10:09:52;8.80;;;1.90;;
61015;SDS011;46902;52.920;6.536;2024-03-25T10:12:18;16.55;;;2.60;;
61015;SDS011;46902;52.920;6.536;2024-03-25T10:14:45;13.80;;;2.53;;
61015;SDS011;46902;52.920;6.536;2024-03-25T10:17:10;12.88;;;2.10;;
61015;SDS011;46902;52.920;6.536;2024-03-25T10:19:36;15.32;;;2.80;;
61015;SDS011;46902;52.920;6.536;2024-03-25T10:22:05;13.65;;;2.90;;
61015;SDS011;46902;52.920;6.536;2024-03-25T10:27:16;14.27;;;2.20;;
61015;SDS011;46902;52.920;6.536;2024-03-25T10:29:45;13.40;;;2.05;;
61015;SDS011;46902;52.920;6.536;2024-03-25T10:32:17;11.40;;;3.00;;
61015;SDS011;46902;52.920;6.536;2024-03-25T10:34:43;13.90;;;2.25;;
61015;SDS011;46902;52.920;6.536;2024-03-25T10:37:09;9.13;;;1.67;;
61015;SDS011;46902;52.920;6.536;2024-03-25T10:39:39;6.13;;;1.33;;
61015;SDS011;46902;52.920;6.536;2024-03-25T10:42:13;6.35;;;1.30;;
61015;SDS011;46902;52.920;6.536;2024-03-25T10:44:39;10.43;;;1.85;;
61015;SDS011;46902;52.920;6.536;2024-03-25T10:47:06;10.50;;;1.95;;
61015;SDS011;46902;52.920;6.536;2024-03-25T10:49:50;10.95;;;1.83;;
61015;SDS011;46902;52.920;6.536;2024-03-25T10:52:26;13.02;;;2.42;;
61015;SDS011;46902;52.920;6.536;2024-03-25T10:54:54;9.35;;;2.10;;
61015;SDS011;46902;52.920;6.536;2024-03-25T10:57:21;12.98;;;2.35;;
61015;SDS011;46902;52.920;6.536;2024-03-25T10:59:47;10.52;;;1.75;;
61015;SDS011;46902;52.920;6.536;2024-03-25T11:02:14;10.85;;;2.22;;
61015;SDS011;46902;52.920;6.536;2024-03-25T11:04:42;9.73;;;1.75;;
61015;SDS011;46902;52.920;6.536;2024-03-25T11:07:14;13.13;;;2.20;;
61015;SDS011;46902;52.920;6.536;2024-03-25T11:09:40;7.78;;;1.90;;
61015;SDS011;46902;52.920;6.536;2024-03-25T11:12:09;11.02;;;2.08;;
61015;SDS011;46902;52.920;6.536;2024-03-25T11:14:35;10.27;;;1.85;;
61015;SDS011;46902;52.920;6.536;2024-03-25T11:17:01;13.00;;;2.13;;
61015;SDS011;46902;52.920;6.536;2024-03-25T11:19:27;13.70;;;1.98;;
61015;SDS011;46902;52.920;6.536;2024-03-25T11:22:06;9.48;;;1.88;;
61015;SDS011;46902;52.920;6.536;2024-03-25T11:24:34;10.23;;;1.77;;
61015;SDS011;46902;52.920;6.536;2024-03-25T11:27:02;8.88;;;2.53;;
61015;SDS011;46902;52.920;6.536;2024-03-25T11:29:28;11.52;;;2.22;;
61015;SDS011;46902;52.920;6.536;2024-03-25T11:31:55;10.52;;;2.05;;
61015;SDS011;46902;52.920;6.536;2024-03-25T11:34:23;8.80;;;2.03;;
61015;SDS011;46902;52.920;6.536;2024-03-25T11:36:49;10.27;;;1.90;;
61015;SDS011;46902;52.920;6.536;2024-03-25T11:39:16;10.70;;;2.25;;
61015;SDS011;46902;52.920;6.536;2024-03-25T11:41:43;10.40;;;2.00;;
61015;SDS011;46902;52.920;6.536;2024-03-25T11:44:10;10.27;;;2.03;;
61015;SDS011;46902;52.920;6.536;2024-03-25T11:46:37;10.52;;;1.80;;
61015;SDS011;46902;52.920;6.536;2024-03-25T11:49:22;13.52;;;2.22;;
61015;SDS011;46902;52.920;6.536;2024-03-25T11:51:47;9.20;;;1.98;;
61015;SDS011;46902;52.920;6.536;2024-03-25T11:54:13;10.45;;;2.10;;
61015;SDS011;46902;52.920;6.536;2024-03-25T11:56:40;10.32;;;1.70;;
61015;SDS011;46902;52.920;6.536;2024-03-25T11:59:07;10.20;;;1.70;;
61015;SDS011;46902;52.920;6.536;2024-03-25T12:01:33;9.57;;;1.80;;
61015;SDS011;46902;52.920;6.536;2024-03-25T12:04:17;10.27;;;1.85;;
61015;SDS011;46902;52.920;6.536;2024-03-25T12:06:43;11.15;;;2.17;;
61015;SDS011;46902;52.920;6.536;2024-03-25T12:09:10;10.27;;;2.03;;
61015;SDS011;46902;52.920;6.536;2024-03-25T12:11:55;12.25;;;2.65;;
61015;SDS011;46902;52.920;6.536;2024-03-25T12:14:22;11.13;;;2.40;;
61015;SDS011;46902;52.920;6.536;2024-03-25T12:16:48;10.63;;;2.13;;
61015;SDS011;46902;52.920;6.536;2024-03-25T12:19:15;11.98;;;2.78;;
61015;SDS011;46902;52.920;6.536;2024-03-25T12:21:42;8.52;;;2.28;;
61015;SDS011;46902;52.920;6.536;2024-03-25T12:24:07;11.20;;;2.33;;
61015;SDS011;46902;52.920;6.536;2024-03-25T12:26:34;10.85;;;2.45;;
61015;SDS011;46902;52.920;6.536;2024-03-25T12:29:00;9.98;;;1.90;;
61015;SDS011;46902;52.920;6.536;2024-03-25T12:31:28;11.88;;;2.00;;
61015;SDS011;46902;52.920;6.536;2024-03-25T12:33:54;10.48;;;1.92;;
61015;SDS011;46902;52.920;6.536;2024-03-25T12:36:20;10.18;;;2.30;;
61015;SDS011;46902;52.920;6.536;2024-03-25T12:38:53;8.85;;;2.13;;
61015;SDS011;46902;52.920;6.536;2024-03-25T12:41:22;8.23;;;1.40;;
61015;SDS011;46902;52.920;6.536;2024-03-25T12:43:49;11.27;;;1.88;;
61015;SDS011;46902;52.920;6.536;2024-03-25T12:46:16;9.57;;;1.92;;
61015;SDS011;46902;52.920;6.536;2024-03-25T12:48:42;9.02;;;2.10;;
61015;SDS011;46902;52.920;6.536;2024-03-25T12:51:14;14.55;;;2.15;;
61015;SDS011;46902;52.920;6.536;2024-03-25T12:53:41;8.63;;;1.67;;
61015;SDS011;46902;52.920;6.536;2024-03-25T12:56:07;9.20;;;1.80;;
61015;SDS011;46902;52.920;6.536;2024-03-25T12:58:33;10.95;;;1.98;;
61015;SDS011;46902;52.920;6.536;2024-03-25T13:00:59;9.40;;;2.00;;
61015;SDS011;46902;52.920;6.536;2024-03-25T13:03:25;10.70;;;1.70;;
61015;SDS011;46902;52.920;6.536;2024-03-25T13:05:50;9.68;;;1.98;;
61015;SDS011;46902;52.920;6.536;2024-03-25T13:08:16;9.55;;;1.90;;
61015;SDS011;46902;52.920;6.536;2024-03-25T13:10:42;10.82;;;2.35;;
61015;SDS011;46902;52.920;6.536;2024-03-25T13:13:08;11.70;;;2.10;;
61015;SDS011;46902;52.920;6.536;2024-03-25T13:15:34;11.68;;;2.40;;
61015;SDS011;46902;52.920;6.536;2024-03-25T13:18:00;9.20;;;2.08;;
61015;SDS011;46902;52.920;6.536;2024-03-25T13:20:26;11.07;;;1.80;;
61015;SDS011;46902;52.920;6.536;2024-03-25T13:22:53;11.05;;;2.13;;
61015;SDS011;46902;52.920;6.536;2024-03-25T13:25:24;9.88;;;1.98;;
61015;SDS011;46902;52.920;6.536;2024-03-25T13:27:50;10.45;;;2.45;;
61015;SDS011;46902;52.920;6.536;2024-03-25T13:30:15;9.38;;;2.00;;
61015;SDS011;46902;52.920;6.536;2024-03-25T13:32:41;8.63;;;1.58;;
61015;SDS011;46902;52.920;6.536;2024-03-25T13:35:07;10.43;;;2.03;;
61015;SDS011;46902;52.920;6.536;2024-03-25T13:37:32;11.55;;;1.80;;
61015;SDS011;46902;52.920;6.536;2024-03-25T13:39:58;11.90;;;2.13;;
61015;SDS011;46902;52.920;6.536;2024-03-25T13:42:24;8.40;;;2.20;;
61015;SDS011;46902;52.920;6.536;2024-03-25T13:44:49;9.27;;;2.15;;
61015;SDS011;46902;52.920;6.536;2024-03-25T13:47:15;7.18;;;2.22;;
61015;SDS011;46902;52.920;6.536;2024-03-25T13:49:40;7.32;;;1.50;;
61015;SDS011;46902;52.920;6.536;2024-03-25T13:52:06;9.02;;;1.63;;
61015;SDS011;46902;52.920;6.536;2024-03-25T13:54:32;9.98;;;1.98;;
61015;SDS011;46902;52.920;6.536;2024-03-25T13:56:57;13.57;;;2.60;;
61015;SDS011;46902;52.920;6.536;2024-03-25T13:59:23;7.60;;;2.33;;
61015;SDS011;46902;52.920;6.536;2024-03-25T14:01:49;9.43;;;1.70;;
61015;SDS011;46902;52.920;6.536;2024-03-25T14:04:16;6.40;;;1.60;;
61015;SDS011;46902;52.920;6.536;2024-03-25T14:06:42;3.80;;;0.90;;
61015;SDS011;46902;52.920;6.536;2024-03-25T14:09:10;6.93;;;1.60;;
61015;SDS011;46902;52.920;6.536;2024-03-25T14:11:48;5.93;;;1.50;;
61015;SDS011;46902;52.920;6.536;2024-03-25T14:14:13;6.13;;;1.30;;
61015;SDS011;46902;52.920;6.536;2024-03-25T14:16:39;11.45;;;1.63;;
61015;SDS011;46902;52.920;6.536;2024-03-25T14:19:04;4.97;;;1.30;;
61015;SDS011;46902;52.920;6.536;2024-03-25T14:21:30;4.20;;;1.00;;
61015;SDS011;46902;52.920;6.536;2024-03-25T14:23:55;6.60;;;1.13;;
61015;SDS011;46902;52.920;6.536;2024-03-25T14:26:21;7.85;;;1.33;;
61015;SDS011;46902;52.920;6.536;2024-03-25T14:28:47;3.60;;;1.17;;
61015;SDS011;46902;52.920;6.536;2024-03-25T14:31:12;8.00;;;1.45;;
61015;SDS011;46902;52.920;6.536;2024-03-25T14:33:38;5.05;;;1.25;;
61015;SDS011;46902;52.920;6.536;2024-03-25T14:36:03;5.07;;;1.00;;
61015;SDS011;46902;52.920;6.536;2024-03-25T14:38:29;5.20;;;0.98;;